sensor_id;sensor_type;location;lat;lon;timestamp;temperature;humidity
8114;DHT22;4099;52.684;9.918;2023-03-14T00:00:31;10.40;99.90
8114;DHT22;4099;52.684;9.918;2023-03-14T00:05:33;10.40;99.90
8114;DHT22;4099;52.684;9.918;2023-03-14T00:10:37;10.30;99.90
8114;DHT22;4099;52.684;9.918;2023-03-14T00:15:39;10.30;99.90
8114;DHT22;4099;52.684;9.918;2023-03-14T00:20:41;10.30;99.90
8114;DHT22;4099;52.684;9.918;2023-03-14T00:25:44;10.30;99.90
8114;DHT22;4099;52.684;9.918;2023-03-14T00:30:46;10.30;99.90
8114;DHT22;4099;52.684;9.918;2023-03-14T00:35:55;10.20;99.90
8114;DHT22;4099;52.684;9.918;2023-03-14T00:40:58;10.10;99.90
8114;DHT22;4099;52.684;9.918;2023-03-14T00:46:00;10.10;99.90
8114;DHT22;4099;52.684;9.918;2023-03-14T00:51:04;10.10;99.90
8114;DHT22;4099;52.684;9.918;2023-03-14T00:56:10;10.10;99.90
8114;DHT22;4099;52.684;9.918;2023-03-14T01:01:14;10.20;99.90
8114;DHT22;4099;52.684;9.918;2023-03-14T01:06:17;10.20;99.90
8114;DHT22;4099;52.684;9.918;2023-03-14T01:11:22;10.30;99.90
8114;DHT22;4099;52.684;9.918;2023-03-14T01:16:26;10.30;99.90
8114;DHT22;4099;52.684;9.918;2023-03-14T01:21:30;10.30;99.90
8114;DHT22;4099;52.684;9.918;2023-03-14T01:26:34;10.40;99.90
8114;DHT22;4099;52.684;9.918;2023-03-14T01:31:38;10.40;99.90
8114;DHT22;4099;52.684;9.918;2023-03-14T01:36:40;10.60;99.90
8114;DHT22;4099;52.684;9.918;2023-03-14T01:41:44;10.60;99.90
8114;DHT22;4099;52.684;9.918;2023-03-14T01:46:46;10.70;99.90
8114;DHT22;4099;52.684;9.918;2023-03-14T01:51:54;10.80;99.90
8114;DHT22;4099;52.684;9.918;2023-03-14T01:57:03;10.80;99.90
8114;DHT22;4099;52.684;9.918;2023-03-14T02:02:07;10.90;99.90
8114;DHT22;4099;52.684;9.918;2023-03-14T02:07:16;10.90;99.90
8114;DHT22;4099;52.684;9.918;2023-03-14T02:12:30;10.80;99.90
8114;DHT22;4099;52.684;9.918;2023-03-14T02:17:59;10.70;99.90
8114;DHT22;4099;52.684;9.918;2023-03-14T02:23:48;10.80;99.90
8114;DHT22;4099;52.684;9.918;2023-03-14T02:28:53;10.90;99.90
8114;DHT22;4099;52.684;9.918;2023-03-14T02:33:56;11.00;99.90
8114;DHT22;4099;52.684;9.918;2023-03-14T02:39:06;11.20;99.90
8114;DHT22;4099;52.684;9.918;2023-03-14T02:44:15;11.30;99.90
8114;DHT22;4099;52.684;9.918;2023-03-14T02:49:17;11.40;99.90
8114;DHT22;4099;52.684;9.918;2023-03-14T02:54:19;11.50;99.90
8114;DHT22;4099;52.684;9.918;2023-03-14T02:59:24;11.50;99.90
8114;DHT22;4099;52.684;9.918;2023-03-14T03:04:31;11.40;99.90
8114;DHT22;4099;52.684;9.918;2023-03-14T03:09:33;11.30;99.90
8114;DHT22;4099;52.684;9.918;2023-03-14T03:14:36;11.30;99.90
8114;DHT22;4099;52.684;9.918;2023-03-14T03:19:40;11.30;99.90
8114;DHT22;4099;52.684;9.918;2023-03-14T03:24:44;11.20;99.90
8114;DHT22;4099;52.684;9.918;2023-03-14T03:29:47;11.30;99.90
8114;DHT22;4099;52.684;9.918;2023-03-14T03:34:49;11.20;99.90
8114;DHT22;4099;52.684;9.918;2023-03-14T03:39:51;11.10;99.90
8114;DHT22;4099;52.684;9.918;2023-03-14T03:44:57;11.10;99.90
8114;DHT22;4099;52.684;9.918;2023-03-14T03:49:59;11.20;99.90
8114;DHT22;4099;52.684;9.918;2023-03-14T03:55:01;11.20;99.90
8114;DHT22;4099;52.684;9.918;2023-03-14T04:00:06;11.20;99.90
8114;DHT22;4099;52.684;9.918;2023-03-14T04:05:15;11.30;99.90
8114;DHT22;4099;52.684;9.918;2023-03-14T04:10:23;11.30;99.90
8114;DHT22;4099;52.684;9.918;2023-03-14T04:15:43;11.30;99.90
8114;DHT22;4099;52.684;9.918;2023-03-14T04:20:53;11.10;99.90
8114;DHT22;4099;52.684;9.918;2023-03-14T04:25:57;10.50;99.90
8114;DHT22;4099;52.684;9.918;2023-03-14T04:31:06;9.90;99.90
8114;DHT22;4099;52.684;9.918;2023-03-14T04:36:09;9.60;99.90
8114;DHT22;4099;52.684;9.918;2023-03-14T04:41:11;9.40;99.90
8114;DHT22;4099;52.684;9.918;2023-03-14T04:46:15;9.20;99.90
8114;DHT22;4099;52.684;9.918;2023-03-14T04:51:18;9.00;99.90
8114;DHT22;4099;52.684;9.918;2023-03-14T04:56:20;8.90;99.90
8114;DHT22;4099;52.684;9.918;2023-03-14T05:01:24;8.70;99.90
8114;DHT22;4099;52.684;9.918;2023-03-14T05:06:44;8.60;99.90
8114;DHT22;4099;52.684;9.918;2023-03-14T05:12:04;8.60;99.90
8114;DHT22;4099;52.684;9.918;2023-03-14T05:17:07;8.50;99.90
8114;DHT22;4099;52.684;9.918;2023-03-14T05:22:18;8.50;99.90
8114;DHT22;4099;52.684;9.918;2023-03-14T05:27:32;8.50;99.90
8114;DHT22;4099;52.684;9.918;2023-03-14T05:33:06;8.50;99.90
8114;DHT22;4099;52.684;9.918;2023-03-14T05:38:20;8.60;99.90
8114;DHT22;4099;52.684;9.918;2023-03-14T05:43:37;8.50;99.90
8114;DHT22;4099;52.684;9.918;2023-03-14T05:48:52;8.60;99.90
8114;DHT22;4099;52.684;9.918;2023-03-14T05:54:29;8.60;99.90
8114;DHT22;4099;52.684;9.918;2023-03-14T05:59:51;8.60;99.90
8114;DHT22;4099;52.684;9.918;2023-03-14T06:05:14;8.50;99.90
8114;DHT22;4099;52.684;9.918;2023-03-14T06:10:16;8.50;99.90
8114;DHT22;4099;52.684;9.918;2023-03-14T06:15:18;8.60;99.90
8114;DHT22;4099;52.684;9.918;2023-03-14T06:20:24;8.60;99.90
8114;DHT22;4099;52.684;9.918;2023-03-14T06:25:26;8.70;99.90
8114;DHT22;4099;52.684;9.918;2023-03-14T06:30:29;9.00;99.90
8114;DHT22;4099;52.684;9.918;2023-03-14T06:35:38;9.40;99.90
8114;DHT22;4099;52.684;9.918;2023-03-14T06:40:40;9.50;99.90
8114;DHT22;4099;52.684;9.918;2023-03-14T06:45:46;9.70;99.90
8114;DHT22;4099;52.684;9.918;2023-03-14T06:50:50;9.90;99.90
8114;DHT22;4099;52.684;9.918;2023-03-14T06:55:52;9.90;99.90
8114;DHT22;4099;52.684;9.918;2023-03-14T07:00:54;10.00;99.90
8114;DHT22;4099;52.684;9.918;2023-03-14T07:06:02;10.10;99.90
8114;DHT22;4099;52.684;9.918;2023-03-14T07:11:04;10.30;99.90
8114;DHT22;4099;52.684;9.918;2023-03-14T07:16:08;10.20;99.90
8114;DHT22;4099;52.684;9.918;2023-03-14T07:21:13;10.10;99.90
8114;DHT22;4099;52.684;9.918;2023-03-14T07:26:15;10.00;99.90
8114;DHT22;4099;52.684;9.918;2023-03-14T07:31:23;9.90;99.90
8114;DHT22;4099;52.684;9.918;2023-03-14T07:36:27;9.80;99.90
8114;DHT22;4099;52.684;9.918;2023-03-14T07:41:29;9.80;99.90
8114;DHT22;4099;52.684;9.918;2023-03-14T07:47:06;9.90;99.90
8114;DHT22;4099;52.684;9.918;2023-03-14T07:52:09;10.30;99.90
8114;DHT22;4099;52.684;9.918;2023-03-14T07:57:11;10.50;99.90
8114;DHT22;4099;52.684;9.918;2023-03-14T08:02:13;10.70;99.90
8114;DHT22;4099;52.684;9.918;2023-03-14T08:07:16;10.80;99.90
8114;DHT22;4099;52.684;9.918;2023-03-14T08:12:18;11.10;99.90
8114;DHT22;4099;52.684;9.918;2023-03-14T08:17:20;11.30;99.90
8114;DHT22;4099;52.684;9.918;2023-03-14T08:22:23;11.30;99.90
8114;DHT22;4099;52.684;9.918;2023-03-14T08:27:24;11.20;99.90
8114;DHT22;4099;52.684;9.918;2023-03-14T08:32:26;11.20;99.90
8114;DHT22;4099;52.684;9.918;2023-03-14T08:37:30;11.30;99.90
8114;DHT22;4099;52.684;9.918;2023-03-14T08:42:32;11.30;99.90
8114;DHT22;4099;52.684;9.918;2023-03-14T08:47:34;11.40;99.90
8114;DHT22;4099;52.684;9.918;2023-03-14T08:52:40;11.50;99.90
8114;DHT22;4099;52.684;9.918;2023-03-14T08:57:41;11.60;99.90
8114;DHT22;4099;52.684;9.918;2023-03-14T09:02:43;11.50;99.90
8114;DHT22;4099;52.684;9.918;2023-03-14T09:07:47;11.20;99.90
8114;DHT22;4099;52.684;9.918;2023-03-14T09:12:48;10.80;99.90
8114;DHT22;4099;52.684;9.918;2023-03-14T09:17:51;10.70;99.90
8114;DHT22;4099;52.684;9.918;2023-03-14T09:22:54;11.10;99.90
8114;DHT22;4099;52.684;9.918;2023-03-14T09:27:57;11.30;99.90
8114;DHT22;4099;52.684;9.918;2023-03-14T09:33:01;10.80;99.90
8114;DHT22;4099;52.684;9.918;2023-03-14T09:38:04;10.60;99.90
8114;DHT22;4099;52.684;9.918;2023-03-14T09:43:10;10.60;99.90
8114;DHT22;4099;52.684;9.918;2023-03-14T09:48:16;10.80;99.90
8114;DHT22;4099;52.684;9.918;2023-03-14T09:53:23;10.90;99.90
8114;DHT22;4099;52.684;9.918;2023-03-14T09:58:27;11.00;99.90
8114;DHT22;4099;52.684;9.918;2023-03-14T10:03:32;11.30;99.90
8114;DHT22;4099;52.684;9.918;2023-03-14T10:08:35;11.60;99.90
8114;DHT22;4099;52.684;9.918;2023-03-14T10:13:48;11.80;99.90
8114;DHT22;4099;52.684;9.918;2023-03-14T10:18:50;11.80;99.90
8114;DHT22;4099;52.684;9.918;2023-03-14T10:23:54;12.10;99.90
8114;DHT22;4099;52.684;9.918;2023-03-14T10:29:02;11.90;99.90
8114;DHT22;4099;52.684;9.918;2023-03-14T10:34:09;11.90;99.90
8114;DHT22;4099;52.684;9.918;2023-03-14T10:39:26;11.90;99.90
8114;DHT22;4099;52.684;9.918;2023-03-14T10:44:30;11.80;99.90
8114;DHT22;4099;52.684;9.918;2023-03-14T10:49:34;11.60;99.90
8114;DHT22;4099;52.684;9.918;2023-03-14T10:54:37;11.70;99.90
8114;DHT22;4099;52.684;9.918;2023-03-14T10:59:41;11.50;99.90
8114;DHT22;4099;52.684;9.918;2023-03-14T11:04:54;11.00;99.90
8114;DHT22;4099;52.684;9.918;2023-03-14T11:10:02;10.80;99.90
8114;DHT22;4099;52.684;9.918;2023-03-14T11:15:14;10.10;99.90
8114;DHT22;4099;52.684;9.918;2023-03-14T11:20:33;8.80;99.90
8114;DHT22;4099;52.684;9.918;2023-03-14T11:25:43;8.00;99.90
8114;DHT22;4099;52.684;9.918;2023-03-14T11:30:51;7.80;99.90
8114;DHT22;4099;52.684;9.918;2023-03-14T11:35:58;7.70;99.90
8114;DHT22;4099;52.684;9.918;2023-03-14T11:41:04;7.30;99.90
8114;DHT22;4099;52.684;9.918;2023-03-14T11:46:15;6.60;99.90
8114;DHT22;4099;52.684;9.918;2023-03-14T11:51:23;6.00;99.90
8114;DHT22;4099;52.684;9.918;2023-03-14T11:56:31;6.00;99.90
8114;DHT22;4099;52.684;9.918;2023-03-14T12:01:44;5.90;99.90
8114;DHT22;4099;52.684;9.918;2023-03-14T12:06:49;5.80;99.90
8114;DHT22;4099;52.684;9.918;2023-03-14T12:11:55;5.60;99.90
8114;DHT22;4099;52.684;9.918;2023-03-14T12:17:03;5.30;99.90
8114;DHT22;4099;52.684;9.918;2023-03-14T12:22:13;5.10;99.90
8114;DHT22;4099;52.684;9.918;2023-03-14T12:27:45;4.80;99.90
8114;DHT22;4099;52.684;9.918;2023-03-14T12:38:37;4.80;99.90
8114;DHT22;4099;52.684;9.918;2023-03-14T12:43:42;4.50;99.90
8114;DHT22;4099;52.684;9.918;2023-03-14T12:48:45;4.40;99.90
8114;DHT22;4099;52.684;9.918;2023-03-14T12:59:30;4.20;99.90
8114;DHT22;4099;52.684;9.918;2023-03-14T13:04:35;4.40;99.90
8114;DHT22;4099;52.684;9.918;2023-03-14T13:10:03;4.70;99.90
8114;DHT22;4099;52.684;9.918;2023-03-14T13:15:18;5.30;99.90
8114;DHT22;4099;52.684;9.918;2023-03-14T13:20:24;5.40;99.90
8114;DHT22;4099;52.684;9.918;2023-03-14T13:25:33;5.30;99.90
8114;DHT22;4099;52.684;9.918;2023-03-14T13:30:42;5.50;99.90
8114;DHT22;4099;52.684;9.918;2023-03-14T13:35:45;5.30;99.90
8114;DHT22;4099;52.684;9.918;2023-03-14T13:40:48;5.30;99.90
8114;DHT22;4099;52.684;9.918;2023-03-14T13:45:54;5.40;99.90
8114;DHT22;4099;52.684;9.918;2023-03-14T13:51:00;5.90;99.90
8114;DHT22;4099;52.684;9.918;2023-03-14T13:56:08;5.80;99.90
8114;DHT22;4099;52.684;9.918;2023-03-14T14:01:15;5.70;99.90
8114;DHT22;4099;52.684;9.918;2023-03-14T14:06:27;5.30;99.90
8114;DHT22;4099;52.684;9.918;2023-03-14T14:11:40;5.30;99.90
8114;DHT22;4099;52.684;9.918;2023-03-14T14:16:45;5.80;99.90
8114;DHT22;4099;52.684;9.918;2023-03-14T14:21:48;5.70;99.90
8114;DHT22;4099;52.684;9.918;2023-03-14T14:26:51;5.60;99.90
8114;DHT22;4099;52.684;9.918;2023-03-14T14:32:02;5.70;99.90
8114;DHT22;4099;52.684;9.918;2023-03-14T14:37:04;5.90;99.90
8114;DHT22;4099;52.684;9.918;2023-03-14T14:42:13;5.80;99.90
8114;DHT22;4099;52.684;9.918;2023-03-14T14:47:19;5.70;99.90
8114;DHT22;4099;52.684;9.918;2023-03-14T14:52:30;5.50;99.90
8114;DHT22;4099;52.684;9.918;2023-03-14T14:57:36;5.50;99.90
8114;DHT22;4099;52.684;9.918;2023-03-14T15:02:45;5.40;99.90
8114;DHT22;4099;52.684;9.918;2023-03-14T15:07:48;5.40;99.90
8114;DHT22;4099;52.684;9.918;2023-03-14T15:12:50;5.40;99.90
8114;DHT22;4099;52.684;9.918;2023-03-14T15:17:53;5.20;99.90
8114;DHT22;4099;52.684;9.918;2023-03-14T15:22:55;5.20;99.90
8114;DHT22;4099;52.684;9.918;2023-03-14T15:27:57;5.20;99.90
8114;DHT22;4099;52.684;9.918;2023-03-14T15:33:00;5.30;99.90
8114;DHT22;4099;52.684;9.918;2023-03-14T15:38:02;5.50;99.90
8114;DHT22;4099;52.684;9.918;2023-03-14T15:43:04;6.40;99.90
8114;DHT22;4099;52.684;9.918;2023-03-14T15:48:13;6.40;99.90
8114;DHT22;4099;52.684;9.918;2023-03-14T15:53:15;7.00;99.90
8114;DHT22;4099;52.684;9.918;2023-03-14T15:58:19;8.20;99.90
8114;DHT22;4099;52.684;9.918;2023-03-14T16:03:22;8.40;99.00
8114;DHT22;4099;52.684;9.918;2023-03-14T16:08:24;7.40;97.10
8114;DHT22;4099;52.684;9.918;2023-03-14T16:13:26;6.50;99.90
8114;DHT22;4099;52.684;9.918;2023-03-14T16:18:32;6.00;99.90
8114;DHT22;4099;52.684;9.918;2023-03-14T16:23:35;5.60;97.90
8114;DHT22;4099;52.684;9.918;2023-03-14T16:28:37;5.60;98.50
8114;DHT22;4099;52.684;9.918;2023-03-14T16:33:40;5.60;97.50
8114;DHT22;4099;52.684;9.918;2023-03-14T16:38:43;6.00;95.80
8114;DHT22;4099;52.684;9.918;2023-03-14T16:43:46;6.80;95.90
8114;DHT22;4099;52.684;9.918;2023-03-14T16:48:52;6.90;94.10
8114;DHT22;4099;52.684;9.918;2023-03-14T16:53:54;7.10;94.70
8114;DHT22;4099;52.684;9.918;2023-03-14T16:58:56;6.80;94.90
8114;DHT22;4099;52.684;9.918;2023-03-14T17:04:00;5.90;96.60
8114;DHT22;4099;52.684;9.918;2023-03-14T17:09:02;5.40;95.80
8114;DHT22;4099;52.684;9.918;2023-03-14T17:14:04;5.20;99.20
8114;DHT22;4099;52.684;9.918;2023-03-14T17:19:08;4.90;99.90
8114;DHT22;4099;52.684;9.918;2023-03-14T17:24:10;4.60;99.90
8114;DHT22;4099;52.684;9.918;2023-03-14T17:29:12;4.40;99.90
8114;DHT22;4099;52.684;9.918;2023-03-14T17:34:15;4.20;99.90
8114;DHT22;4099;52.684;9.918;2023-03-14T17:39:17;3.90;99.90
8114;DHT22;4099;52.684;9.918;2023-03-14T17:44:19;3.80;99.90
8114;DHT22;4099;52.684;9.918;2023-03-14T17:49:23;3.80;99.90
8114;DHT22;4099;52.684;9.918;2023-03-14T17:54:25;3.90;99.90
8114;DHT22;4099;52.684;9.918;2023-03-14T17:59:27;4.10;99.90
8114;DHT22;4099;52.684;9.918;2023-03-14T18:04:30;4.10;99.90
8114;DHT22;4099;52.684;9.918;2023-03-14T18:09:31;4.10;99.90
8114;DHT22;4099;52.684;9.918;2023-03-14T18:14:34;4.00;99.90
8114;DHT22;4099;52.684;9.918;2023-03-14T18:19:37;3.60;99.90
8114;DHT22;4099;52.684;9.918;2023-03-14T18:24:39;3.40;99.90
8114;DHT22;4099;52.684;9.918;2023-03-14T18:29:41;3.40;99.90
8114;DHT22;4099;52.684;9.918;2023-03-14T18:34:44;3.30;99.90
8114;DHT22;4099;52.684;9.918;2023-03-14T18:39:46;3.40;99.90
8114;DHT22;4099;52.684;9.918;2023-03-14T18:44:48;3.60;99.90
8114;DHT22;4099;52.684;9.918;2023-03-14T18:49:51;3.60;99.90
8114;DHT22;4099;52.684;9.918;2023-03-14T18:54:53;3.70;99.90
8114;DHT22;4099;52.684;9.918;2023-03-14T18:59:55;3.80;99.90
8114;DHT22;4099;52.684;9.918;2023-03-14T19:04:59;3.80;99.90
8114;DHT22;4099;52.684;9.918;2023-03-14T19:10:01;3.60;99.90
8114;DHT22;4099;52.684;9.918;2023-03-14T19:15:03;3.60;99.90
8114;DHT22;4099;52.684;9.918;2023-03-14T19:20:08;3.50;99.90
8114;DHT22;4099;52.684;9.918;2023-03-14T19:25:10;3.30;99.90
8114;DHT22;4099;52.684;9.918;2023-03-14T19:30:12;3.20;99.90
8114;DHT22;4099;52.684;9.918;2023-03-14T19:35:15;3.00;99.90
8114;DHT22;4099;52.684;9.918;2023-03-14T19:40:17;2.80;99.90
8114;DHT22;4099;52.684;9.918;2023-03-14T19:45:20;2.70;99.90
8114;DHT22;4099;52.684;9.918;2023-03-14T19:50:24;2.60;99.90
8114;DHT22;4099;52.684;9.918;2023-03-14T19:55:26;2.50;99.90
8114;DHT22;4099;52.684;9.918;2023-03-14T20:00:28;2.40;99.90
8114;DHT22;4099;52.684;9.918;2023-03-14T20:05:32;2.30;99.90
8114;DHT22;4099;52.684;9.918;2023-03-14T20:10:35;2.20;99.90
8114;DHT22;4099;52.684;9.918;2023-03-14T20:15:38;2.20;99.90
8114;DHT22;4099;52.684;9.918;2023-03-14T20:20:41;2.20;99.90
8114;DHT22;4099;52.684;9.918;2023-03-14T20:25:43;2.20;99.90
8114;DHT22;4099;52.684;9.918;2023-03-14T20:30:46;2.10;99.90
8114;DHT22;4099;52.684;9.918;2023-03-14T20:35:53;2.10;99.90
8114;DHT22;4099;52.684;9.918;2023-03-14T20:40:56;2.00;99.90
8114;DHT22;4099;52.684;9.918;2023-03-14T20:45:59;2.00;99.90
8114;DHT22;4099;52.684;9.918;2023-03-14T20:51:03;2.00;99.90
8114;DHT22;4099;52.684;9.918;2023-03-14T20:56:06;1.90;99.90
8114;DHT22;4099;52.684;9.918;2023-03-14T21:01:10;1.80;99.90
8114;DHT22;4099;52.684;9.918;2023-03-14T21:06:13;1.70;99.90
8114;DHT22;4099;52.684;9.918;2023-03-14T21:11:15;1.60;99.90
8114;DHT22;4099;52.684;9.918;2023-03-14T21:16:16;1.60;99.90
8114;DHT22;4099;52.684;9.918;2023-03-14T21:21:20;1.50;99.90
8114;DHT22;4099;52.684;9.918;2023-03-14T21:26:21;1.40;99.90
8114;DHT22;4099;52.684;9.918;2023-03-14T21:31:23;1.30;99.90
8114;DHT22;4099;52.684;9.918;2023-03-14T21:36:26;1.30;99.90
8114;DHT22;4099;52.684;9.918;2023-03-14T21:41:28;1.30;99.90
8114;DHT22;4099;52.684;9.918;2023-03-14T21:46:30;1.20;99.90
8114;DHT22;4099;52.684;9.918;2023-03-14T21:51:33;1.20;99.90
8114;DHT22;4099;52.684;9.918;2023-03-14T21:56:35;1.20;99.90
8114;DHT22;4099;52.684;9.918;2023-03-14T22:01:37;1.30;99.90
8114;DHT22;4099;52.684;9.918;2023-03-14T22:06:40;1.40;99.90
8114;DHT22;4099;52.684;9.918;2023-03-14T22:11:44;1.50;99.90
8114;DHT22;4099;52.684;9.918;2023-03-14T22:16:45;1.40;99.90
8114;DHT22;4099;52.684;9.918;2023-03-14T22:21:49;1.50;99.90
8114;DHT22;4099;52.684;9.918;2023-03-14T22:26:51;1.40;99.90
8114;DHT22;4099;52.684;9.918;2023-03-14T22:31:54;1.30;99.90
8114;DHT22;4099;52.684;9.918;2023-03-14T22:36:57;1.20;99.90
8114;DHT22;4099;52.684;9.918;2023-03-14T22:42:00;1.10;99.90
8114;DHT22;4099;52.684;9.918;2023-03-14T22:47:02;1.10;99.90
8114;DHT22;4099;52.684;9.918;2023-03-14T22:52:06;1.00;99.90
8114;DHT22;4099;52.684;9.918;2023-03-14T22:57:07;0.90;99.90
8114;DHT22;4099;52.684;9.918;2023-03-14T23:02:09;0.90;99.90
8114;DHT22;4099;52.684;9.918;2023-03-14T23:07:13;1.00;99.90
8114;DHT22;4099;52.684;9.918;2023-03-14T23:12:14;1.10;99.90
8114;DHT22;4099;52.684;9.918;2023-03-14T23:17:17;1.10;99.90
8114;DHT22;4099;52.684;9.918;2023-03-14T23:22:20;1.10;99.90
8114;DHT22;4099;52.684;9.918;2023-03-14T23:27:22;1.10;99.90
8114;DHT22;4099;52.684;9.918;2023-03-14T23:32:24;1.10;99.90
8114;DHT22;4099;52.684;9.918;2023-03-14T23:37:27;1.00;99.90
8114;DHT22;4099;52.684;9.918;2023-03-14T23:42:28;1.00;99.90
8114;DHT22;4099;52.684;9.918;2023-03-14T23:47:31;1.10;99.90
8114;DHT22;4099;52.684;9.918;2023-03-14T23:52:34;1.10;99.90
8114;DHT22;4099;52.684;9.918;2023-03-14T23:57:35;1.10;99.90
